createdAt,value
2019-05-15T00:01:19.215Z,19.63
2019-05-15T00:03:51.112Z,19.87
2019-05-15T00:06:22.718Z,16.03
2019-05-15T00:08:54.105Z,20.93
2019-05-15T00:11:25.416Z,18.90
2019-05-15T00:13:58.934Z,23.20
2019-05-15T00:16:30.615Z,25.37
2019-05-15T00:19:01.937Z,19.53
2019-05-15T00:21:33.146Z,17.73
2019-05-15T00:24:04.655Z,24.57
2019-05-15T00:26:38.478Z,17.00
2019-05-15T00:29:15.829Z,21.17
2019-05-15T00:31:43.013Z,18.53
2019-05-15T00:34:14.728Z,21.20
2019-05-15T00:36:48.721Z,20.13
2019-05-15T00:39:19.574Z,18.53
2019-05-15T00:41:54.616Z,20.60
2019-05-15T00:44:24.930Z,17.00
2019-05-15T00:46:58.272Z,18.00
2019-05-15T00:49:29.551Z,16.83
2019-05-15T00:52:01.213Z,20.17
2019-05-15T00:54:32.485Z,18.70
2019-05-15T00:57:04.010Z,16.13
2019-05-15T00:59:35.336Z,17.33
2019-05-15T01:02:08.715Z,16.87
2019-05-15T01:04:40.110Z,20.93
2019-05-15T01:07:11.347Z,21.17
2019-05-15T01:09:42.915Z,18.60
2019-05-15T01:12:14.267Z,18.50
2019-05-15T01:14:45.805Z,19.17
2019-05-15T01:17:18.453Z,19.77
2019-05-15T01:19:49.963Z,20.43
2019-05-15T01:22:22.753Z,23.03
2019-05-15T01:24:54.087Z,24.07
2019-05-15T01:27:25.673Z,21.10
2019-05-15T01:29:58.151Z,19.67
2019-05-15T01:32:29.810Z,20.77
2019-05-15T01:35:01.185Z,19.63
2019-05-15T01:37:32.543Z,19.03
2019-05-15T01:40:04.345Z,18.10
2019-05-15T01:42:38.363Z,20.40
2019-05-15T01:45:09.761Z,16.50
2019-05-15T01:47:41.301Z,17.83
2019-05-15T01:50:12.962Z,17.93
2019-05-15T01:52:44.253Z,20.40
2019-05-15T01:55:18.160Z,20.57
2019-05-15T01:57:49.892Z,21.20
2019-05-15T02:00:22.450Z,20.50
2019-05-15T02:02:53.686Z,20.57
2019-05-15T02:05:28.216Z,21.17
2019-05-15T02:07:59.488Z,20.70
2019-05-15T02:10:30.865Z,24.63
2019-05-15T02:13:02.305Z,20.70
2019-05-15T02:15:33.568Z,18.60
2019-05-15T02:18:05.049Z,19.80
2019-05-15T02:20:38.787Z,20.30
2019-05-15T02:23:11.702Z,19.23
2019-05-15T02:25:42.990Z,19.53
2019-05-15T02:28:14.646Z,20.10
2019-05-15T02:30:45.910Z,22.13
2019-05-15T02:33:18.958Z,19.80
2019-05-15T02:35:50.686Z,22.73
2019-05-15T02:38:22.116Z,19.03
2019-05-15T02:40:53.724Z,17.43
2019-05-15T02:43:25.216Z,23.67
2019-05-15T02:45:56.529Z,19.83
2019-05-15T02:48:28.947Z,20.83
2019-05-15T02:51:00.652Z,21.40
2019-05-15T02:53:32.298Z,20.27
2019-05-15T02:56:03.590Z,22.23
2019-05-15T02:58:35.027Z,18.03
2019-05-15T03:01:09.343Z,18.47
2019-05-15T03:03:40.048Z,17.70
2019-05-15T03:06:11.626Z,18.97
2019-05-15T03:08:43.241Z,17.93
2019-05-15T03:11:14.807Z,14.93
2019-05-15T03:13:50.399Z,16.10
2019-05-15T03:16:20.686Z,16.67
2019-05-15T03:18:55.772Z,23.63
2019-05-15T03:21:25.514Z,17.70
2019-05-15T03:23:59.452Z,16.27
2019-05-15T03:26:30.687Z,18.50
2019-05-15T03:29:02.237Z,15.97
2019-05-15T03:31:48.782Z,16.90
2019-05-15T03:34:19.948Z,17.40
2019-05-15T03:36:45.235Z,18.83
2019-05-15T03:39:13.530Z,17.43
2019-05-15T03:41:45.110Z,17.43
2019-05-15T03:44:39.048Z,20.70
2019-05-15T03:47:09.405Z,17.50
2019-05-15T03:49:41.382Z,19.47
2019-05-15T03:52:12.681Z,18.20
2019-05-15T03:54:44.330Z,15.23
2019-05-15T03:57:20.087Z,19.93
2019-05-15T03:59:49.133Z,16.70
2019-05-15T04:02:20.580Z,15.40
2019-05-15T04:04:52.031Z,21.60
2019-05-15T04:07:23.434Z,17.63
2019-05-15T04:09:54.823Z,18.47
2019-05-15T04:12:29.002Z,14.63
2019-05-15T04:14:59.809Z,17.30
2019-05-15T04:17:31.122Z,17.73
2019-05-15T04:20:04.223Z,20.30
2019-05-15T04:22:35.623Z,18.03
2019-05-15T04:25:09.761Z,15.83
2019-05-15T04:27:41.494Z,16.27
2019-05-15T04:30:14.140Z,16.60
2019-05-15T04:32:48.564Z,19.80
2019-05-15T04:35:19.773Z,15.87
2019-05-15T04:37:51.467Z,20.10
2019-05-15T04:40:22.721Z,17.43
2019-05-15T04:42:54.119Z,19.93
2019-05-15T04:45:25.841Z,17.87
2019-05-15T04:47:58.770Z,17.43
2019-05-15T04:50:30.104Z,17.43
2019-05-15T04:53:01.496Z,15.70
2019-05-15T04:55:33.538Z,16.27
2019-05-15T04:58:05.286Z,15.77
2019-05-15T05:00:49.561Z,17.77
2019-05-15T05:03:21.301Z,16.63
2019-05-15T05:05:52.654Z,14.83
2019-05-15T05:08:23.901Z,14.37
2019-05-15T05:10:58.830Z,18.77
2019-05-15T05:13:29.235Z,15.17
2019-05-15T05:16:00.965Z,19.20
2019-05-15T05:18:32.517Z,15.57
2019-05-15T05:21:03.978Z,16.93
2019-05-15T05:23:37.603Z,13.57
2019-05-15T05:26:11.073Z,16.20
2019-05-15T05:28:42.156Z,17.63
2019-05-15T05:31:14.264Z,14.77
2019-05-15T05:33:45.829Z,15.33
2019-05-15T05:36:18.567Z,16.10
2019-05-15T05:38:50.013Z,16.73
2019-05-15T05:41:21.464Z,17.73
2019-05-15T05:43:52.825Z,15.33
2019-05-15T05:46:24.398Z,16.77
2019-05-15T05:48:55.565Z,15.83
2019-05-15T05:51:28.146Z,16.57
2019-05-15T05:53:59.958Z,17.30
2019-05-15T05:56:31.646Z,14.40
2019-05-15T05:59:03.356Z,14.23
2019-05-15T06:01:38.186Z,17.03
2019-05-15T06:04:08.480Z,19.97
2019-05-15T06:06:39.937Z,14.67
2019-05-15T06:09:11.315Z,17.90
2019-05-15T06:11:42.627Z,17.97
2019-05-15T06:14:13.899Z,14.73
2019-05-15T06:16:47.985Z,14.57
2019-05-15T06:19:19.102Z,14.97
2019-05-15T06:21:56.802Z,13.57
2019-05-15T06:24:24.542Z,17.17
2019-05-15T06:26:56.114Z,19.90
2019-05-15T06:29:28.300Z,16.70
2019-05-15T06:32:00.077Z,18.97
2019-05-15T06:34:31.828Z,15.87
2019-05-15T06:37:03.336Z,15.17
2019-05-15T06:39:35.966Z,15.80
2019-05-15T06:42:08.807Z,16.63
2019-05-15T06:44:40.805Z,15.77
2019-05-15T06:47:12.266Z,13.77
2019-05-15T06:49:43.763Z,14.80
2019-05-15T06:52:15.359Z,17.70
2019-05-15T06:54:48.555Z,16.57
2019-05-15T06:57:20.034Z,18.17
2019-05-15T06:59:51.594Z,14.30
2019-05-15T07:02:22.982Z,17.73
2019-05-15T07:04:54.376Z,14.53
2019-05-15T07:07:25.862Z,14.83
2019-05-15T07:09:58.149Z,15.60
2019-05-15T07:12:29.685Z,15.23
2019-05-15T07:15:01.199Z,12.33
2019-05-15T07:17:32.706Z,15.60
2019-05-15T07:20:08.530Z,15.80
2019-05-15T07:22:39.486Z,15.90
2019-05-15T07:25:11.096Z,14.90
2019-05-15T07:27:42.704Z,16.90
2019-05-15T07:30:14.321Z,12.47
2019-05-15T07:32:48.755Z,12.48
2019-05-15T07:35:19.939Z,13.67
2019-05-15T07:37:51.391Z,15.80
2019-05-15T07:40:23.192Z,14.00
2019-05-15T07:42:54.643Z,16.77
2019-05-15T07:45:28.298Z,16.30
2019-05-15T07:47:59.933Z,18.03
2019-05-15T07:50:31.372Z,15.80
2019-05-15T07:53:03.134Z,14.30
2019-05-15T07:55:34.631Z,12.63
2019-05-15T07:58:08.474Z,13.87
2019-05-15T08:00:39.695Z,14.07
2019-05-15T08:03:11.315Z,15.13
2019-05-15T08:05:54.972Z,15.80
2019-05-15T08:08:18.347Z,12.30
2019-05-15T08:10:49.753Z,15.47
2019-05-15T08:13:21.137Z,17.50
2019-05-15T08:15:52.695Z,13.33
2019-05-15T08:18:24.038Z,15.47
2019-05-15T08:20:58.379Z,14.17
2019-05-15T08:23:28.894Z,16.87
2019-05-15T08:26:00.289Z,15.77
2019-05-15T08:28:31.809Z,14.00
2019-05-15T08:31:06.419Z,17.57
2019-05-15T08:33:38.702Z,17.10
2019-05-15T08:36:09.644Z,16.50
2019-05-15T08:38:41.102Z,15.20
2019-05-15T08:41:15.458Z,15.17
2019-05-15T08:43:45.643Z,12.27
2019-05-15T08:46:18.649Z,17.60
2019-05-15T08:48:51.550Z,13.43
2019-05-15T08:51:22.955Z,17.30
2019-05-15T08:53:54.552Z,13.27
2019-05-15T08:56:28.694Z,16.43
2019-05-15T08:58:59.318Z,15.23
2019-05-15T09:01:31.077Z,13.60
2019-05-15T09:04:02.653Z,13.93
2019-05-15T09:06:33.966Z,17.03
2019-05-15T09:09:09.340Z,13.20
2019-05-15T09:11:39.634Z,17.63
2019-05-15T09:14:11.107Z,16.70
2019-05-15T09:16:42.670Z,15.50
2019-05-15T09:19:14.205Z,14.67
2019-05-15T09:21:45.468Z,14.63
2019-05-15T09:24:19.663Z,16.40
2019-05-15T09:26:49.991Z,14.17
2019-05-15T09:29:21.435Z,13.23
2019-05-15T09:31:52.934Z,18.53
2019-05-15T09:34:24.196Z,17.27
2019-05-15T09:36:59.768Z,12.37
2019-05-15T09:39:30.070Z,15.23
2019-05-15T09:42:01.868Z,16.17
2019-05-15T09:44:33.332Z,12.17
2019-05-15T09:47:04.819Z,17.03
2019-05-15T09:49:38.943Z,17.50
2019-05-15T09:52:09.729Z,14.13
2019-05-15T09:54:41.236Z,19.90
2019-05-15T09:57:12.853Z,18.87
2019-05-15T09:59:44.224Z,20.67
2019-05-15T10:02:15.494Z,21.13
2019-05-15T10:04:49.615Z,14.63
2019-05-15T10:07:20.345Z,15.43
2019-05-15T10:09:52.419Z,18.33
2019-05-15T10:12:24.432Z,19.63
2019-05-15T10:14:59.046Z,23.07
2019-05-15T10:17:30.372Z,33.83
2019-05-15T10:20:02.750Z,22.03
2019-05-15T10:22:34.336Z,13.23
2019-05-15T10:25:08.365Z,8.73
2019-05-15T10:27:40.033Z,7.70
2019-05-15T10:30:11.549Z,6.17
2019-05-15T10:32:43.797Z,6.23
2019-05-15T10:35:25.525Z,6.33
2019-05-15T10:37:48.999Z,6.70
2019-05-15T10:40:20.675Z,7.03
2019-05-15T10:42:52.119Z,4.93
2019-05-15T10:45:23.756Z,7.73
2019-05-15T10:47:55.137Z,8.83
2019-05-15T10:50:28.394Z,17.70
2019-05-15T10:52:59.802Z,10.10
2019-05-15T10:55:31.067Z,6.63
2019-05-15T10:58:02.400Z,12.37
2019-05-15T11:00:34.072Z,9.03
2019-05-15T11:03:05.375Z,5.87
2019-05-15T11:05:45.168Z,7.30
2019-05-15T11:08:09.929Z,8.37
2019-05-15T11:10:42.527Z,5.80
2019-05-15T11:13:13.977Z,8.00
2019-05-15T11:15:45.477Z,6.53
2019-05-15T11:18:16.861Z,6.57
2019-05-15T11:20:48.936Z,7.87
2019-05-15T11:23:20.749Z,8.50
2019-05-15T11:25:52.062Z,9.87
2019-05-15T11:28:23.540Z,6.47
2019-05-15T11:30:54.902Z,7.90
2019-05-15T11:33:29.017Z,6.33
2019-05-15T11:36:05.511Z,7.67
2019-05-15T11:38:33.135Z,7.93
2019-05-15T11:41:04.817Z,8.17
2019-05-15T11:43:38.617Z,7.43
2019-05-15T11:46:10.086Z,9.07
2019-05-15T11:48:41.634Z,8.63
2019-05-15T11:51:13.420Z,9.27
2019-05-15T11:53:44.870Z,7.90
2019-05-15T11:56:18.682Z,13.17
2019-05-15T11:58:49.433Z,27.83
2019-05-15T12:01:20.737Z,13.10
2019-05-15T12:03:52.296Z,7.97
2019-05-15T12:06:23.630Z,9.07
2019-05-15T12:08:55.197Z,8.80
2019-05-15T12:11:33.360Z,8.80
2019-05-15T12:13:59.765Z,9.77
2019-05-15T12:16:35.522Z,7.40
2019-05-15T12:19:16.935Z,8.40
2019-05-15T12:21:39.641Z,7.57
2019-05-15T12:24:11.652Z,9.47
2019-05-15T12:26:43.358Z,8.07
2019-05-15T12:29:15.349Z,10.30
2019-05-15T12:31:52.948Z,11.33
2019-05-15T12:34:24.390Z,8.90
2019-05-15T12:36:58.182Z,9.47
2019-05-15T12:39:30.546Z,8.83
2019-05-15T12:59:58.225Z,9.00
2019-05-15T13:02:29.887Z,7.33
2019-05-15T13:05:05.354Z,9.28
2019-05-15T13:07:37.952Z,8.17
2019-05-15T13:10:09.698Z,8.97
2019-05-15T13:12:55.580Z,8.43
2019-05-15T13:15:14.409Z,8.63
2019-05-15T13:17:45.807Z,8.43
2019-05-15T13:20:18.486Z,9.20
2019-05-15T13:25:23.313Z,7.97
2019-05-15T13:27:55.152Z,11.60
2019-05-15T13:30:26.643Z,7.10
2019-05-15T13:32:58.800Z,9.27
2019-05-15T13:35:30.767Z,5.57
2019-05-15T13:38:02.504Z,8.77
2019-05-15T13:40:37.862Z,7.43
2019-05-15T13:43:08.394Z,6.70
2019-05-15T13:45:41.442Z,6.30
2019-05-15T13:48:12.988Z,8.53
2019-05-15T13:50:44.324Z,9.97
2019-05-15T13:53:15.774Z,8.23
2019-05-15T13:55:48.405Z,8.20
2019-05-15T13:58:20.296Z,8.77
2019-05-15T14:00:52.156Z,11.83
2019-05-15T14:03:23.512Z,12.10
2019-05-15T14:05:54.856Z,16.73
2019-05-15T14:08:28.796Z,12.43
2019-05-15T14:10:59.763Z,11.93
2019-05-15T14:13:31.424Z,10.97
2019-05-15T14:16:02.961Z,8.63
2019-05-15T14:18:34.397Z,10.90
2019-05-15T14:21:05.961Z,12.37
2019-05-15T14:23:38.419Z,13.07
2019-05-15T14:26:17.794Z,12.87
2019-05-15T14:28:43.361Z,10.00
2019-05-15T14:31:14.821Z,10.53
2019-05-15T14:33:48.593Z,10.33
2019-05-15T14:36:19.663Z,11.00
2019-05-15T14:38:51.377Z,12.50
2019-05-15T14:41:22.682Z,11.40
2019-05-15T14:43:54.251Z,10.87
2019-05-15T14:46:25.838Z,12.13
2019-05-15T14:48:58.281Z,12.80
2019-05-15T14:51:29.638Z,12.87
2019-05-15T14:54:01.187Z,11.27
2019-05-15T14:56:32.934Z,12.57
2019-05-15T14:59:04.351Z,12.93
2019-05-15T15:01:38.248Z,17.63
2019-05-15T15:04:09.874Z,16.70
2019-05-15T15:06:41.329Z,12.37
2019-05-15T15:09:12.774Z,22.50
2019-05-15T15:11:44.353Z,20.17
2019-05-15T15:14:17.911Z,17.77
2019-05-15T15:16:49.121Z,14.80
2019-05-15T15:19:20.753Z,13.67
2019-05-15T15:21:52.346Z,13.80
2019-05-15T15:24:23.789Z,13.13
2019-05-15T15:26:55.617Z,12.73
2019-05-15T15:29:28.099Z,10.30
2019-05-15T15:31:59.512Z,14.03
2019-05-15T15:34:31.373Z,14.47
2019-05-15T15:37:03.019Z,14.67
2019-05-15T15:39:34.278Z,16.17
2019-05-15T15:42:05.539Z,12.80
2019-05-15T15:44:38.030Z,15.30
2019-05-15T15:47:10.042Z,10.70
2019-05-15T15:49:41.654Z,14.43
2019-05-15T15:52:12.972Z,15.13
2019-05-15T15:54:44.434Z,14.30
2019-05-15T15:57:16.044Z,12.27
2019-05-15T15:59:49.141Z,14.27
2019-05-15T16:02:20.535Z,13.83
2019-05-15T16:04:51.829Z,12.07
2019-05-15T16:07:23.305Z,16.03
2019-05-15T16:09:54.878Z,14.90
2019-05-15T16:12:27.787Z,18.07
2019-05-15T16:14:59.712Z,25.03
2019-05-15T16:17:30.927Z,30.47
2019-05-15T16:20:02.603Z,27.90
2019-05-15T16:22:34.173Z,24.83
2019-05-15T16:25:09.260Z,25.20
2019-05-15T16:27:39.665Z,24.90
2019-05-15T16:30:11.569Z,24.47
2019-05-15T16:32:43.291Z,32.13
2019-05-15T16:35:15.166Z,34.10
2019-05-15T16:37:49.025Z,28.53
2019-05-15T16:40:20.465Z,28.13
2019-05-15T16:42:51.724Z,22.37
2019-05-15T16:45:23.047Z,21.27
2019-05-15T16:47:54.754Z,21.77
2019-05-15T16:50:28.447Z,18.70
2019-05-15T16:52:59.787Z,19.20
2019-05-15T16:55:31.065Z,18.97
2019-05-15T16:58:02.225Z,21.57
2019-05-15T17:00:33.636Z,20.10
2019-05-15T17:03:10.154Z,21.60
2019-05-15T17:05:38.761Z,28.73
2019-05-15T17:08:10.612Z,23.63
2019-05-15T17:10:42.071Z,22.97
2019-05-15T17:13:13.621Z,23.30
2019-05-15T17:15:47.695Z,20.10
2019-05-15T17:18:19.341Z,22.90
2019-05-15T17:20:50.713Z,24.13
2019-05-15T17:23:22.086Z,28.70
2019-05-15T17:25:53.773Z,27.53
2019-05-15T17:28:25.529Z,22.93
2019-05-15T17:30:58.389Z,18.70
2019-05-15T17:33:29.862Z,22.83
2019-05-15T17:36:01.361Z,24.70
2019-05-15T17:38:32.957Z,22.37
2019-05-15T17:41:04.302Z,19.43
2019-05-15T17:43:37.813Z,22.97
2019-05-15T17:46:09.422Z,24.13
2019-05-15T17:48:41.360Z,21.63
2019-05-15T17:51:13.089Z,18.77
2019-05-15T17:53:44.665Z,21.97
2019-05-15T17:56:17.917Z,23.30
2019-05-15T17:58:49.329Z,25.63
2019-05-15T18:01:20.869Z,23.00
2019-05-15T18:03:52.153Z,27.60
2019-05-15T18:06:23.749Z,21.57
2019-05-15T18:08:55.462Z,23.93
2019-05-15T18:11:27.834Z,22.77
2019-05-15T18:14:00.309Z,20.00
2019-05-15T18:16:31.728Z,23.10
2019-05-15T18:19:03.400Z,19.67
2019-05-15T18:21:34.981Z,23.63
2019-05-15T18:24:09.150Z,22.80
2019-05-15T18:26:40.160Z,24.10
2019-05-15T18:29:11.501Z,26.33
2019-05-15T18:31:43.134Z,21.13
2019-05-15T18:34:14.829Z,22.37
2019-05-15T18:36:48.434Z,23.93
2019-05-15T18:39:19.554Z,22.67
2019-05-15T18:41:50.821Z,30.77
2019-05-15T18:44:22.033Z,31.17
2019-05-15T18:46:53.295Z,35.53
2019-05-15T18:49:24.502Z,24.60
2019-05-15T18:51:58.109Z,26.60
2019-05-15T18:54:29.393Z,23.30
2019-05-15T18:57:01.049Z,25.77
2019-05-15T18:59:32.565Z,25.17
2019-05-15T19:02:04.034Z,25.93
2019-05-15T19:04:35.337Z,30.70
2019-05-15T19:07:08.867Z,31.43
2019-05-15T19:09:40.156Z,35.60
2019-05-15T19:12:11.822Z,28.03
2019-05-15T19:14:43.480Z,34.47
2019-05-15T19:17:14.914Z,30.77
2019-05-15T19:19:48.201Z,30.80
2019-05-15T19:22:19.950Z,29.77
2019-05-15T19:24:51.202Z,33.93
2019-05-15T19:27:22.813Z,28.67
2019-05-15T19:29:54.618Z,29.60
2019-05-15T19:32:27.796Z,26.80
2019-05-15T19:34:59.084Z,24.57
2019-05-15T19:37:30.394Z,24.83
2019-05-15T19:40:04.367Z,28.17
2019-05-15T19:42:38.071Z,24.23
2019-05-15T19:45:09.460Z,25.10
2019-05-15T19:47:40.916Z,25.23
2019-05-15T19:50:13.149Z,20.97
2019-05-15T19:52:45.148Z,35.23
2019-05-15T19:55:17.704Z,44.60
2019-05-15T19:57:50.301Z,26.37
2019-05-15T20:00:21.572Z,29.10
2019-05-15T20:02:52.881Z,21.60
2019-05-15T20:05:24.506Z,23.60
2019-05-15T20:07:58.757Z,19.80
2019-05-15T20:10:30.476Z,20.97
2019-05-15T20:13:01.957Z,21.40
2019-05-15T20:15:33.638Z,24.60
2019-05-15T20:18:05.203Z,20.33
2019-05-15T20:20:38.624Z,19.43
2019-05-15T20:23:10.533Z,19.37
2019-05-15T20:25:42.288Z,20.43
2019-05-15T20:28:13.685Z,21.07
2019-05-15T20:30:45.170Z,19.50
2019-05-15T20:33:18.219Z,22.37
2019-05-15T20:35:49.766Z,22.97
2019-05-15T20:38:21.304Z,18.80
2019-05-15T20:40:52.796Z,21.60
2019-05-15T20:43:24.135Z,23.90
2019-05-15T20:45:57.620Z,18.83
2019-05-15T20:48:29.036Z,20.43
2019-05-15T20:51:01.347Z,23.23
2019-05-15T20:53:32.711Z,22.30
2019-05-15T20:56:04.289Z,21.00
2019-05-15T20:58:35.637Z,25.60
2019-05-15T21:01:09.177Z,19.90
2019-05-15T21:03:40.828Z,21.57
2019-05-15T21:06:13.293Z,23.73
2019-05-15T21:08:44.619Z,18.70
2019-05-15T21:11:18.069Z,19.83
2019-05-15T21:13:49.569Z,19.53
2019-05-15T21:16:21.057Z,20.80
2019-05-15T21:18:52.493Z,21.07
2019-05-15T21:21:24.025Z,17.87
2019-05-15T21:23:55.569Z,22.63
2019-05-15T21:26:27.135Z,22.70
2019-05-15T21:29:00.185Z,21.93
2019-05-15T21:31:31.518Z,22.53
2019-05-15T21:34:02.920Z,19.20
2019-05-15T21:36:34.257Z,21.37
2019-05-15T21:39:05.737Z,24.90
2019-05-15T21:41:38.708Z,23.60
2019-05-15T21:44:10.197Z,21.13
2019-05-15T21:46:41.634Z,22.20
2019-05-15T21:49:12.944Z,19.67
2019-05-15T21:51:44.624Z,21.30
2019-05-15T21:54:17.988Z,22.03
2019-05-15T21:56:50.509Z,24.40
2019-05-15T21:59:22.091Z,20.17
2019-05-15T22:01:53.552Z,19.97
2019-05-15T22:04:25.256Z,17.13
2019-05-15T22:06:58.397Z,16.80
2019-05-15T22:09:29.816Z,20.83
2019-05-15T22:12:01.426Z,25.90
2019-05-15T22:14:33.376Z,19.13
2019-05-15T22:17:04.964Z,16.57
2019-05-15T22:19:38.513Z,18.93
2019-05-15T22:22:09.509Z,18.93
2019-05-15T22:24:40.854Z,21.47
2019-05-15T22:27:12.534Z,20.83
2019-05-15T22:29:44.324Z,17.40
2019-05-15T22:32:15.791Z,18.60
2019-05-15T22:34:48.091Z,21.03
2019-05-15T22:37:21.731Z,66.30
2019-05-15T22:39:53.222Z,45.77
2019-05-15T22:42:24.801Z,36.27
2019-05-15T22:44:56.145Z,17.67
2019-05-15T22:47:28.516Z,19.93
2019-05-15T22:50:00.107Z,17.30
2019-05-15T22:52:31.709Z,19.17
2019-05-15T22:55:03.993Z,21.30
2019-05-15T22:57:35.588Z,17.30
2019-05-15T23:00:08.626Z,15.67
2019-05-15T23:02:41.072Z,20.83
2019-05-15T23:05:23.880Z,19.53
2019-05-15T23:07:48.017Z,15.70
2019-05-15T23:10:18.797Z,16.60
2019-05-15T23:12:50.590Z,15.67
2019-05-15T23:15:22.112Z,16.17
2019-05-15T23:17:53.779Z,19.77
2019-05-15T23:20:25.124Z,15.43
2019-05-15T23:22:58.416Z,15.23
2019-05-15T23:25:30.319Z,15.47
2019-05-15T23:28:02.031Z,13.17
2019-05-15T23:30:33.318Z,13.50
2019-05-15T23:33:04.791Z,14.00
2019-05-15T23:35:38.912Z,13.20
2019-05-15T23:38:09.471Z,12.93
2019-05-15T23:40:41.165Z,15.40
2019-05-15T23:43:13.725Z,14.77
2019-05-15T23:45:45.121Z,20.27
2019-05-15T23:48:16.750Z,20.13
2019-05-15T23:50:48.724Z,19.40
2019-05-15T23:53:20.077Z,14.03
2019-05-15T23:55:51.587Z,16.80
2019-05-15T23:58:22.858Z,13.90
